Řízení letového provozu České republiky
Letiste: LKPR Aktualizace: 17.10.2017 23:36:04  UTC
 METAR LKPR 17.10. 23:30 ...
METAR LKPR 172330Z 00000KT 3000 0500SE R24/P2000N R30/0400N BCFG BR NSC 10/09 Q1019 NOSIG RMK REG QNH 1017=
 TAF LKPR 17.10. 23:00 ...
TAF LKPR 172300Z 1800/1906 VRB02KT 3000 BR NSC      TEMPO 1800/1808 1300 BR SCT005      PROB30 TEMPO 1800/1808 0500 FG BKN002      BECMG 1808/1810 07004KT 4000 BR BKN020      TEMPO 1811/1818 9999 SCT030      BECMG 1821/1900 2000 BR SCT007      TEMPO 1900/1906 0700 FG BKN003=